sensor_id;sensor_type;location;lat;lon;timestamp;pressure;altitude;pressure_sealevel;temperature;humidity
50057;BME280;36875;49.468;11.200;2023-04-20T00:00:03;97957.69;;;20.02;39.22
50057;BME280;36875;49.468;11.200;2023-04-20T00:02:37;97951.41;;;20.02;39.02
50057;BME280;36875;49.468;11.200;2023-04-20T00:05:03;97957.38;;;20.04;39.20
50057;BME280;36875;49.468;11.200;2023-04-20T00:07:29;97946.44;;;20.04;39.19
50057;BME280;36875;49.468;11.200;2023-04-20T00:09:55;97944.03;;;20.02;39.22
50057;BME280;36875;49.468;11.200;2023-04-20T00:12:21;97945.94;;;20.02;39.38
50057;BME280;36875;49.468;11.200;2023-04-20T00:14:46;97937.75;;;20.02;38.90
50057;BME280;36875;49.468;11.200;2023-04-20T00:17:12;97939.66;;;20.01;38.80
50057;BME280;36875;49.468;11.200;2023-04-20T00:19:39;97940.00;;;20.00;38.81
50057;BME280;36875;49.468;11.200;2023-04-20T00:22:04;97929.88;;;20.00;39.13
50057;BME280;36875;49.468;11.200;2023-04-20T00:24:32;97930.66;;;20.01;39.34
50057;BME280;36875;49.468;11.200;2023-04-20T00:26:58;97925.00;;;19.97;38.67
50057;BME280;36875;49.468;11.200;2023-04-20T00:29:23;97924.72;;;19.99;39.05
50057;BME280;36875;49.468;11.200;2023-04-20T00:31:49;97920.03;;;19.99;38.99
50057;BME280;36875;49.468;11.200;2023-04-20T00:34:15;97915.72;;;19.98;39.04
50057;BME280;36875;49.468;11.200;2023-04-20T00:36:41;97908.94;;;19.96;38.84
50057;BME280;36875;49.468;11.200;2023-04-20T00:39:07;97913.28;;;19.97;38.84
50057;BME280;36875;49.468;11.200;2023-04-20T00:41:32;97911.34;;;19.97;39.04
50057;BME280;36875;49.468;11.200;2023-04-20T00:43:58;97918.75;;;19.97;39.12
50057;BME280;36875;49.468;11.200;2023-04-20T00:46:23;97908.63;;;19.97;39.05
50057;BME280;36875;49.468;11.200;2023-04-20T00:48:50;97908.94;;;19.96;38.81
50057;BME280;36875;49.468;11.200;2023-04-20T00:51:16;97910.56;;;19.97;38.62
50057;BME280;36875;49.468;11.200;2023-04-20T00:53:43;97906.19;;;19.96;38.90
50057;BME280;36875;49.468;11.200;2023-04-20T00:56:11;97905.09;;;19.97;38.91
50057;BME280;36875;49.468;11.200;2023-04-20T00:58:37;97895.28;;;19.96;39.04
50057;BME280;36875;49.468;11.200;2023-04-20T01:01:03;97889.81;;;19.96;38.96
50057;BME280;36875;49.468;11.200;2023-04-20T01:03:29;97882.75;;;19.95;38.55
50057;BME280;36875;49.468;11.200;2023-04-20T01:05:55;97894.47;;;19.95;38.63
50057;BME280;36875;49.468;11.200;2023-04-20T01:08:24;97883.56;;;19.95;38.38
50057;BME280;36875;49.468;11.200;2023-04-20T01:10:51;97894.47;;;19.95;38.58
50057;BME280;36875;49.468;11.200;2023-04-20T01:13:17;97897.50;;;19.94;38.49
50057;BME280;36875;49.468;11.200;2023-04-20T01:15:42;97897.50;;;19.94;38.80
50057;BME280;36875;49.468;11.200;2023-04-20T01:18:08;97896.72;;;19.93;38.74
50057;BME280;36875;49.468;11.200;2023-04-20T01:20:33;97893.19;;;19.93;38.32
50057;BME280;36875;49.468;11.200;2023-04-20T01:23:00;97887.72;;;19.93;38.62
50057;BME280;36875;49.468;11.200;2023-04-20T01:25:26;97885.00;;;19.93;38.81
50057;BME280;36875;49.468;11.200;2023-04-20T01:27:51;97894.28;;;19.92;38.54
50057;BME280;36875;49.468;11.200;2023-04-20T01:30:17;97900.56;;;19.92;38.46
50057;BME280;36875;49.468;11.200;2023-04-20T01:32:42;97894.00;;;19.93;38.59
50057;BME280;36875;49.468;11.200;2023-04-20T01:35:08;97893.19;;;19.93;38.28
50057;BME280;36875;49.468;11.200;2023-04-20T01:37:35;97894.78;;;19.94;38.45
50057;BME280;36875;49.468;11.200;2023-04-20T01:40:02;97886.91;;;19.92;38.44
50057;BME280;36875;49.468;11.200;2023-04-20T01:42:28;97883.69;;;19.90;38.16
50057;BME280;36875;49.468;11.200;2023-04-20T01:44:53;97895.09;;;19.92;38.26
50057;BME280;36875;49.468;11.200;2023-04-20T01:47:19;97875.97;;;19.92;38.64
50057;BME280;36875;49.468;11.200;2023-04-20T01:49:44;97867.44;;;19.85;38.44
50057;BME280;36875;49.468;11.200;2023-04-20T01:52:10;97873.25;;;19.92;38.31
50057;BME280;36875;49.468;11.200;2023-04-20T01:54:35;97878.69;;;19.92;38.11
50057;BME280;36875;49.468;11.200;2023-04-20T01:57:03;97877.09;;;19.91;38.35
50057;BME280;36875;49.468;11.200;2023-04-20T01:59:28;97873.25;;;19.92;38.16
50057;BME280;36875;49.468;11.200;2023-04-20T02:01:54;97877.09;;;19.91;38.39
50057;BME280;36875;49.468;11.200;2023-04-20T02:04:20;97872.44;;;19.92;38.22
50057;BME280;36875;49.468;11.200;2023-04-20T02:06:45;97871.47;;;19.88;38.18
50057;BME280;36875;49.468;11.200;2023-04-20T02:09:11;97865.03;;;19.92;37.94
50057;BME280;36875;49.468;11.200;2023-04-20T02:11:36;97855.56;;;19.90;37.98
50057;BME280;36875;49.468;11.200;2023-04-20T02:14:03;97869.22;;;19.90;38.10
50057;BME280;36875;49.468;11.200;2023-04-20T02:16:29;97864.88;;;19.89;38.18
50057;BME280;36875;49.468;11.200;2023-04-20T02:18:55;97859.09;;;19.90;38.30
50057;BME280;36875;49.468;11.200;2023-04-20T02:21:21;97854.47;;;19.91;38.05
50057;BME280;36875;49.468;11.200;2023-04-20T02:23:47;97852.84;;;19.90;38.21
50057;BME280;36875;49.468;11.200;2023-04-20T02:26:12;97851.22;;;19.89;37.91
50057;BME280;36875;49.468;11.200;2023-04-20T02:28:37;97852.84;;;19.90;37.95
50057;BME280;36875;49.468;11.200;2023-04-20T02:31:04;97849.59;;;19.88;37.90
50057;BME280;36875;49.468;11.200;2023-04-20T02:33:30;97853.94;;;19.89;37.73
50057;BME280;36875;49.468;11.200;2023-04-20T02:35:56;97841.22;;;19.84;37.99
50057;BME280;36875;49.468;11.200;2023-04-20T02:38:21;97837.88;;;19.87;37.80
50057;BME280;36875;49.468;11.200;2023-04-20T02:40:47;97841.22;;;19.84;37.96
50057;BME280;36875;49.468;11.200;2023-04-20T02:43:12;97844.94;;;19.88;38.11
50057;BME280;36875;49.468;11.200;2023-04-20T02:45:38;97842.53;;;19.87;37.70
50057;BME280;36875;49.468;11.200;2023-04-20T02:48:05;97844.75;;;19.84;38.11
50057;BME280;36875;49.468;11.200;2023-04-20T02:50:31;97842.53;;;19.87;37.50
50057;BME280;36875;49.468;11.200;2023-04-20T02:52:56;97837.41;;;19.85;37.93
50057;BME280;36875;49.468;11.200;2023-04-20T02:55:22;97833.84;;;19.84;38.05
50057;BME280;36875;49.468;11.200;2023-04-20T02:57:47;97830.81;;;19.86;37.77
50057;BME280;36875;49.468;11.200;2023-04-20T03:00:13;97824.84;;;19.84;37.77
50057;BME280;36875;49.468;11.200;2023-04-20T03:02:38;97820.16;;;19.76;37.79
50057;BME280;36875;49.468;11.200;2023-04-20T03:05:06;97836.88;;;19.83;37.78
50057;BME280;36875;49.468;11.200;2023-04-20T03:07:32;97829.50;;;19.83;37.77
50057;BME280;36875;49.468;11.200;2023-04-20T03:09:57;97823.22;;;19.83;37.71
50057;BME280;36875;49.468;11.200;2023-04-20T03:12:23;97815.69;;;19.80;37.54
50057;BME280;36875;49.468;11.200;2023-04-20T03:14:48;97817.91;;;19.78;37.67
50057;BME280;36875;49.468;11.200;2023-04-20T03:17:14;97827.41;;;19.80;37.65
50057;BME280;36875;49.468;11.200;2023-04-20T03:19:39;97820.31;;;19.79;37.55
50057;BME280;36875;49.468;11.200;2023-04-20T03:22:07;97820.31;;;19.79;37.42
50057;BME280;36875;49.468;11.200;2023-04-20T03:24:33;97812.47;;;19.78;37.53
50057;BME280;36875;49.468;11.200;2023-04-20T03:26:58;97821.44;;;19.78;37.78
50057;BME280;36875;49.468;11.200;2023-04-20T03:29:24;97820.66;;;19.78;37.61
50057;BME280;36875;49.468;11.200;2023-04-20T03:31:49;97823.38;;;19.78;37.71
50057;BME280;36875;49.468;11.200;2023-04-20T03:34:15;97827.53;;;19.75;37.60
50057;BME280;36875;49.468;11.200;2023-04-20T03:36:40;97815.50;;;19.76;37.79
50057;BME280;36875;49.468;11.200;2023-04-20T03:39:07;97820.94;;;19.76;37.60
50057;BME280;36875;49.468;11.200;2023-04-20T03:41:33;97811.97;;;19.76;37.66
50057;BME280;36875;49.468;11.200;2023-04-20T03:43:59;97814.69;;;19.76;37.43
50057;BME280;36875;49.468;11.200;2023-04-20T03:46:25;97813.06;;;19.75;37.50
50057;BME280;36875;49.468;11.200;2023-04-20T03:48:50;97805.59;;;19.67;37.59
50057;BME280;36875;49.468;11.200;2023-04-20T03:51:16;97816.09;;;19.73;37.26
50057;BME280;36875;49.468;11.200;2023-04-20T03:53:41;97818.84;;;19.73;37.24
50057;BME280;36875;49.468;11.200;2023-04-20T03:56:08;97822.38;;;19.74;37.30
50057;BME280;36875;49.468;11.200;2023-04-20T03:58:33;97813.66;;;19.72;37.58
50057;BME280;36875;49.468;11.200;2023-04-20T04:01:02;97813.97;;;19.70;37.39
50057;BME280;36875;49.468;11.200;2023-04-20T04:03:29;97809.31;;;19.71;37.38
50057;BME280;36875;49.468;11.200;2023-04-20T04:05:54;97807.38;;;19.71;37.28
50057;BME280;36875;49.468;11.200;2023-04-20T04:08:20;97802.53;;;19.68;37.60
50057;BME280;36875;49.468;11.200;2023-04-20T04:10:45;97806.59;;;19.71;37.45
50057;BME280;36875;49.468;11.200;2023-04-20T04:13:12;97808.50;;;19.70;37.20
50057;BME280;36875;49.468;11.200;2023-04-20T04:15:37;97803.38;;;19.69;37.17
50057;BME280;36875;49.468;11.200;2023-04-20T04:18:03;97805.28;;;19.68;37.15
50057;BME280;36875;49.468;11.200;2023-04-20T04:20:28;97805.28;;;19.68;37.30
50057;BME280;36875;49.468;11.200;2023-04-20T04:22:54;97808.00;;;19.68;37.28
50057;BME280;36875;49.468;11.200;2023-04-20T04:25:19;97811.88;;;19.67;37.30
50057;BME280;36875;49.468;11.200;2023-04-20T04:27:47;97811.88;;;19.67;37.15
50057;BME280;36875;49.468;11.200;2023-04-20T04:30:14;97808.31;;;19.67;37.34
50057;BME280;36875;49.468;11.200;2023-04-20T04:32:39;97801.38;;;19.60;37.36
50057;BME280;36875;49.468;11.200;2023-04-20T04:35:05;97808.47;;;19.61;37.23
50057;BME280;36875;49.468;11.200;2023-04-20T04:37:31;97810.19;;;19.57;37.02
50057;BME280;36875;49.468;11.200;2023-04-20T04:39:56;97808.09;;;19.54;37.40
50057;BME280;36875;49.468;11.200;2023-04-20T04:42:26;97802.94;;;19.53;37.92
50057;BME280;36875;49.468;11.200;2023-04-20T04:44:53;97810.31;;;19.52;37.70
50057;BME280;36875;49.468;11.200;2023-04-20T04:47:21;97804.38;;;19.50;37.46
50057;BME280;36875;49.468;11.200;2023-04-20T04:49:47;97797.59;;;19.48;37.29
50057;BME280;36875;49.468;11.200;2023-04-20T04:52:13;97792.13;;;19.48;37.19
50057;BME280;36875;49.468;11.200;2023-04-20T04:54:39;97797.59;;;19.48;37.12
50057;BME280;36875;49.468;11.200;2023-04-20T04:57:05;97801.13;;;19.48;37.14
50057;BME280;36875;49.468;11.200;2023-04-20T04:59:31;97795.34;;;19.50;37.34
50057;BME280;36875;49.468;11.200;2023-04-20T05:01:56;97795.53;;;19.53;37.08
50057;BME280;36875;49.468;11.200;2023-04-20T05:04:23;97795.44;;;19.58;36.83
50057;BME280;36875;49.468;11.200;2023-04-20T05:06:48;97794.63;;;19.58;36.89
50057;BME280;36875;49.468;11.200;2023-04-20T05:09:14;97789.47;;;19.56;37.01
50057;BME280;36875;49.468;11.200;2023-04-20T05:11:40;97794.44;;;19.54;37.17
50057;BME280;36875;49.468;11.200;2023-04-20T05:14:05;97789.41;;;19.48;37.19
50057;BME280;36875;49.468;11.200;2023-04-20T05:16:31;97789.91;;;19.50;37.33
50057;BME280;36875;49.468;11.200;2023-04-20T05:18:56;97795.84;;;19.52;36.81
50057;BME280;36875;49.468;11.200;2023-04-20T05:21:23;97802.75;;;19.49;37.29
50057;BME280;36875;49.468;11.200;2023-04-20T05:23:49;97798.22;;;19.44;37.80
50057;BME280;36875;49.468;11.200;2023-04-20T05:26:15;97800.94;;;19.44;38.22
50057;BME280;36875;49.468;11.200;2023-04-20T05:28:41;97798.22;;;19.44;37.74
50057;BME280;36875;49.468;11.200;2023-04-20T05:31:06;97802.06;;;19.43;37.87
50057;BME280;36875;49.468;11.200;2023-04-20T05:33:32;97797.72;;;19.42;38.23
50057;BME280;36875;49.468;11.200;2023-04-20T05:35:57;97800.78;;;19.41;38.18
50057;BME280;36875;49.468;11.200;2023-04-20T05:38:24;97807.84;;;19.42;38.14
50057;BME280;36875;49.468;11.200;2023-04-20T05:40:50;97795.31;;;19.41;38.46
50057;BME280;36875;49.468;11.200;2023-04-20T05:43:16;97796.91;;;19.42;38.23
50057;BME280;36875;49.468;11.200;2023-04-20T05:45:43;97786.41;;;19.35;38.46
50057;BME280;36875;49.468;11.200;2023-04-20T05:48:08;97799.66;;;19.42;38.38
50057;BME280;36875;49.468;11.200;2023-04-20T05:50:35;97806.09;;;19.46;38.95
50057;BME280;36875;49.468;11.200;2023-04-20T05:53:00;97806.38;;;19.44;38.70
50057;BME280;36875;49.468;11.200;2023-04-20T05:55:27;97801.47;;;19.47;38.53
50057;BME280;36875;49.468;11.200;2023-04-20T05:57:53;97802.44;;;19.51;38.26
50057;BME280;36875;49.468;11.200;2023-04-20T06:00:19;97797.34;;;19.58;38.75
50057;BME280;36875;49.468;11.200;2023-04-20T06:02:45;97805.19;;;19.73;38.67
50057;BME280;36875;49.468;11.200;2023-04-20T06:05:10;97794.44;;;19.77;38.62
50057;BME280;36875;49.468;11.200;2023-04-20T06:07:36;97794.81;;;19.84;38.65
50057;BME280;36875;49.468;11.200;2023-04-20T06:10:05;97804.78;;;19.89;38.89
50057;BME280;36875;49.468;11.200;2023-04-20T06:12:32;97795.88;;;19.74;38.97
50057;BME280;36875;49.468;11.200;2023-04-20T06:14:58;97802.50;;;19.82;38.51
50057;BME280;36875;49.468;11.200;2023-04-20T06:17:23;97801.19;;;19.79;38.35
50057;BME280;36875;49.468;11.200;2023-04-20T06:19:49;97816.34;;;19.86;38.54
50057;BME280;36875;49.468;11.200;2023-04-20T06:22:15;97809.94;;;19.90;38.36
50057;BME280;36875;49.468;11.200;2023-04-20T06:24:41;97812.53;;;19.95;38.71
50057;BME280;36875;49.468;11.200;2023-04-20T06:27:06;97813.47;;;20.62;37.56
50057;BME280;36875;49.468;11.200;2023-04-20T06:29:33;97811.16;;;21.13;36.53
50057;BME280;36875;49.468;11.200;2023-04-20T06:31:59;97818.41;;;21.44;36.30
50057;BME280;36875;49.468;11.200;2023-04-20T06:34:27;97815.69;;;21.17;36.67
50057;BME280;36875;49.468;11.200;2023-04-20T06:36:52;97814.47;;;20.75;37.43
50057;BME280;36875;49.468;11.200;2023-04-20T06:39:18;97813.03;;;20.69;37.68
50057;BME280;36875;49.468;11.200;2023-04-20T06:41:43;97814.78;;;20.65;37.92
50057;BME280;36875;49.468;11.200;2023-04-20T06:44:09;97809.16;;;20.61;38.01
50057;BME280;36875;49.468;11.200;2023-04-20T06:46:36;97803.00;;;20.55;38.26
50057;BME280;36875;49.468;11.200;2023-04-20T06:49:02;97807.97;;;20.53;38.24
50057;BME280;36875;49.468;11.200;2023-04-20T06:51:27;97812.44;;;20.49;38.61
50057;BME280;36875;49.468;11.200;2023-04-20T06:53:53;97815.69;;;20.51;38.30
50057;BME280;36875;49.468;11.200;2023-04-20T06:56:19;97817.28;;;20.52;38.55
50057;BME280;36875;49.468;11.200;2023-04-20T06:58:44;97811.81;;;20.52;38.73
50057;BME280;36875;49.468;11.200;2023-04-20T07:01:10;97812.00;;;20.56;38.59
50057;BME280;36875;49.468;11.200;2023-04-20T07:03:37;97810.53;;;20.58;38.77
50057;BME280;36875;49.468;11.200;2023-04-20T07:06:02;97811.09;;;20.60;38.94
50057;BME280;36875;49.468;11.200;2023-04-20T07:08:28;97809.81;;;20.67;38.77
50057;BME280;36875;49.468;11.200;2023-04-20T07:10:54;97804.34;;;20.67;38.85
50057;BME280;36875;49.468;11.200;2023-04-20T07:13:19;97808.03;;;20.71;38.92
50057;BME280;36875;49.468;11.200;2023-04-20T07:15:45;97807.72;;;20.72;38.97
50057;BME280;36875;49.468;11.200;2023-04-20T07:18:10;97813.38;;;20.76;38.93
50057;BME280;36875;49.468;11.200;2023-04-20T07:20:37;97807.41;;;20.74;39.04
50057;BME280;36875;49.468;11.200;2023-04-20T07:23:03;97811.44;;;20.76;39.39
50057;BME280;36875;49.468;11.200;2023-04-20T07:25:29;97810.63;;;20.76;39.25
50057;BME280;36875;49.468;11.200;2023-04-20T07:27:57;97807.09;;;20.84;39.28
50057;BME280;36875;49.468;11.200;2023-04-20T07:30:22;97816.13;;;20.85;39.40
50057;BME280;36875;49.468;11.200;2023-04-20T07:32:48;97814.66;;;20.87;39.46
50057;BME280;36875;49.468;11.200;2023-04-20T07:35:14;97817.41;;;20.87;39.37
50057;BME280;36875;49.468;11.200;2023-04-20T07:37:41;97813.88;;;20.87;39.39
50057;BME280;36875;49.468;11.200;2023-04-20T07:40:07;97817.09;;;20.89;39.34
50057;BME280;36875;49.468;11.200;2023-04-20T07:42:34;97805.03;;;20.90;39.61
50057;BME280;36875;49.468;11.200;2023-04-20T07:45:01;97802.13;;;20.86;39.30
50057;BME280;36875;49.468;11.200;2023-04-20T07:47:26;97810.97;;;20.83;39.91
50057;BME280;36875;49.468;11.200;2023-04-20T07:49:52;97809.03;;;20.84;39.48
50057;BME280;36875;49.468;11.200;2023-04-20T07:52:17;97813.88;;;20.87;39.65
50057;BME280;36875;49.468;11.200;2023-04-20T07:54:44;97813.06;;;20.86;39.74
50057;BME280;36875;49.468;11.200;2023-04-20T07:57:10;97810.81;;;20.88;39.66
50057;BME280;36875;49.468;11.200;2023-04-20T07:59:36;97812.56;;;20.84;39.93
50057;BME280;36875;49.468;11.200;2023-04-20T08:02:02;97810.81;;;20.88;39.67
50057;BME280;36875;49.468;11.200;2023-04-20T08:04:28;97811.63;;;20.89;39.82
50057;BME280;36875;49.468;11.200;2023-04-20T08:06:54;97811.94;;;20.87;40.03
50057;BME280;36875;49.468;11.200;2023-04-20T08:09:19;97804.69;;;20.91;39.59
50057;BME280;36875;49.468;11.200;2023-04-20T08:11:46;97811.63;;;20.89;39.94
50057;BME280;36875;49.468;11.200;2023-04-20T08:14:13;97804.22;;;20.89;39.74
50057;BME280;36875;49.468;11.200;2023-04-20T08:16:39;97801.97;;;20.91;39.75
50057;BME280;36875;49.468;11.200;2023-04-20T08:19:05;97798.09;;;20.92;39.42
50057;BME280;36875;49.468;11.200;2023-04-20T08:21:34;97797.78;;;20.94;39.46
50057;BME280;36875;49.468;11.200;2023-04-20T08:24:00;97793.13;;;20.94;39.78
50057;BME280;36875;49.468;11.200;2023-04-20T08:26:25;97792.63;;;20.92;39.39
50057;BME280;36875;49.468;11.200;2023-04-20T08:28:53;97787.94;;;20.84;39.52
50057;BME280;36875;49.468;11.200;2023-04-20T08:31:18;97787.47;;;20.82;39.51
50057;BME280;36875;49.468;11.200;2023-04-20T08:33:44;97786.69;;;20.90;39.64
50057;BME280;36875;49.468;11.200;2023-04-20T08:36:09;97781.22;;;20.90;39.52
50057;BME280;36875;49.468;11.200;2023-04-20T08:38:35;97778.00;;;20.88;39.34
50057;BME280;36875;49.468;11.200;2023-04-20T08:41:01;97779.28;;;20.91;39.57
50057;BME280;36875;49.468;11.200;2023-04-20T08:43:26;97777.34;;;20.91;39.25
50057;BME280;36875;49.468;11.200;2023-04-20T08:45:57;97787.66;;;20.94;39.59
50057;BME280;36875;49.468;11.200;2023-04-20T08:48:24;97784.25;;;20.89;39.47
50057;BME280;36875;49.468;11.200;2023-04-20T08:50:50;97781.19;;;20.82;39.31
50057;BME280;36875;49.468;11.200;2023-04-20T08:53:15;97787.94;;;20.84;39.25
50057;BME280;36875;49.468;11.200;2023-04-20T08:55:41;97775.91;;;20.85;39.34
50057;BME280;36875;49.468;11.200;2023-04-20T08:58:06;97783.94;;;20.90;38.94
50057;BME280;36875;49.468;11.200;2023-04-20T09:00:32;97781.22;;;20.90;39.34
50057;BME280;36875;49.468;11.200;2023-04-20T09:02:59;97784.75;;;20.91;39.31
50057;BME280;36875;49.468;11.200;2023-04-20T09:05:26;97786.22;;;20.88;39.17
50057;BME280;36875;49.468;11.200;2023-04-20T09:07:52;97793.41;;;20.84;39.42
50057;BME280;36875;49.468;11.200;2023-04-20T09:10:18;97791.81;;;20.83;39.45
50057;BME280;36875;49.468;11.200;2023-04-20T09:12:43;97795.84;;;20.86;39.19
50057;BME280;36875;49.468;11.200;2023-04-20T09:15:09;97799.22;;;20.83;39.23
50057;BME280;36875;49.468;11.200;2023-04-20T09:17:36;97795.66;;;20.82;39.29
50057;BME280;36875;49.468;11.200;2023-04-20T09:20:06;97800.81;;;20.84;39.42
50057;BME280;36875;49.468;11.200;2023-04-20T09:22:34;97789.72;;;20.80;38.99
50057;BME280;36875;49.468;11.200;2023-04-20T09:25:00;97797.28;;;20.83;39.37
50057;BME280;36875;49.468;11.200;2023-04-20T09:27:36;97793.41;;;20.84;39.36
50057;BME280;36875;49.468;11.200;2023-04-20T09:30:01;97789.09;;;20.83;39.25
50057;BME280;36875;49.468;11.200;2023-04-20T09:32:31;97786.53;;;20.87;39.45
50057;BME280;36875;49.468;11.200;2023-04-20T09:34:57;97788.94;;;20.88;39.26
50057;BME280;36875;49.468;11.200;2023-04-20T09:37:24;97782.31;;;20.89;39.32
50057;BME280;36875;49.468;11.200;2023-04-20T09:39:50;97777.81;;;20.93;39.30
50057;BME280;36875;49.468;11.200;2023-04-20T09:42:16;97771.88;;;20.91;39.18
50057;BME280;36875;49.468;11.200;2023-04-20T09:44:42;97773.34;;;20.97;39.13
50057;BME280;36875;49.468;11.200;2023-04-20T09:47:09;97773.34;;;20.97;39.44
50057;BME280;36875;49.468;11.200;2023-04-20T09:49:45;97775.41;;;21.01;39.20
50057;BME280;36875;49.468;11.200;2023-04-20T09:52:16;97769.94;;;21.01;39.08
50057;BME280;36875;49.468;11.200;2023-04-20T09:54:45;97757.41;;;20.99;39.20
50057;BME280;36875;49.468;11.200;2023-04-20T09:57:12;97766.09;;;21.02;39.46
50057;BME280;36875;49.468;11.200;2023-04-20T09:59:40;97768.50;;;21.03;39.29
50057;BME280;36875;49.468;11.200;2023-04-20T10:02:07;97754.84;;;21.03;39.36
50057;BME280;36875;49.468;11.200;2023-04-20T10:04:33;97758.38;;;21.04;39.27
50057;BME280;36875;49.468;11.200;2023-04-20T10:06:58;97755.31;;;21.05;39.41
50057;BME280;36875;49.468;11.200;2023-04-20T10:09:32;97747.91;;;21.06;39.20
50057;BME280;36875;49.468;11.200;2023-04-20T10:12:06;97746.78;;;21.07;38.97
50057;BME280;36875;49.468;11.200;2023-04-20T10:14:32;97749.38;;;21.12;39.02
50057;BME280;36875;49.468;11.200;2023-04-20T10:16:59;97747.91;;;21.14;38.87
50057;BME280;36875;49.468;11.200;2023-04-20T10:19:35;97739.06;;;21.17;38.79
50057;BME280;36875;49.468;11.200;2023-04-20T10:22:01;97742.56;;;21.53;38.08
50057;BME280;36875;49.468;11.200;2023-04-20T10:24:29;97732.09;;;21.64;37.95
50057;BME280;36875;49.468;11.200;2023-04-20T10:29:26;97720.28;;;21.81;37.70
50057;BME280;36875;49.468;11.200;2023-04-20T10:31:52;97719.84;;;21.61;38.32
50057;BME280;36875;49.468;11.200;2023-04-20T10:34:28;97718.75;;;22.01;37.57
50057;BME280;36875;49.468;11.200;2023-04-20T10:36:54;97715.28;;;22.12;37.43
50057;BME280;36875;49.468;11.200;2023-04-20T10:39:19;97711.03;;;22.32;37.13
50057;BME280;36875;49.468;11.200;2023-04-20T10:41:51;97714.81;;;22.49;37.00
50057;BME280;36875;49.468;11.200;2023-04-20T10:44:17;97708.47;;;22.57;37.04
50057;BME280;36875;49.468;11.200;2023-04-20T10:46:47;97704.56;;;22.58;37.03
50057;BME280;36875;49.468;11.200;2023-04-20T10:49:13;97696.41;;;22.20;37.79
50057;BME280;36875;49.468;11.200;2023-04-20T10:51:45;97695.13;;;22.17;37.65
50057;BME280;36875;49.468;11.200;2023-04-20T10:54:11;97695.88;;;22.35;37.41
50057;BME280;36875;49.468;11.200;2023-04-20T10:56:38;97700.63;;;22.47;37.35
50057;BME280;36875;49.468;11.200;2023-04-20T10:59:07;97697.38;;;22.54;37.27
50057;BME280;36875;49.468;11.200;2023-04-20T11:01:33;97677.63;;;22.39;37.47
50057;BME280;36875;49.468;11.200;2023-04-20T11:04:01;97687.84;;;22.30;37.71
50057;BME280;36875;49.468;11.200;2023-04-20T11:06:26;97684.31;;;22.21;37.96
50057;BME280;36875;49.468;11.200;2023-04-20T11:08:53;97682.56;;;22.16;37.81
50057;BME280;36875;49.468;11.200;2023-04-20T11:11:19;97673.38;;;22.12;37.94
50057;BME280;36875;49.468;11.200;2023-04-20T11:13:45;97674.50;;;22.11;37.92
50057;BME280;36875;49.468;11.200;2023-04-20T11:16:11;97669.84;;;22.11;37.73
50057;BME280;36875;49.468;11.200;2023-04-20T11:21:11;97669.72;;;22.08;37.90
50057;BME280;36875;49.468;11.200;2023-04-20T11:23:37;97654.06;;;22.08;38.08
50057;BME280;36875;49.468;11.200;2023-04-20T11:26:02;97653.28;;;22.08;37.79
50057;BME280;36875;49.468;11.200;2023-04-20T11:28:28;97649.72;;;22.07;37.93
50057;BME280;36875;49.468;11.200;2023-04-20T11:30:59;97636.00;;;22.07;37.84
50057;BME280;36875;49.468;11.200;2023-04-20T11:33:25;97628.00;;;22.02;37.98
50057;BME280;36875;49.468;11.200;2023-04-20T11:35:52;97627.03;;;21.98;38.16
50057;BME280;36875;49.468;11.200;2023-04-20T11:38:27;97621.38;;;22.03;37.95
50057;BME280;36875;49.468;11.200;2023-04-20T11:40:52;97626.00;;;22.11;37.93
50057;BME280;36875;49.468;11.200;2023-04-20T11:43:18;97613.81;;;22.00;38.13
50057;BME280;36875;49.468;11.200;2023-04-20T11:45:43;97625.53;;;21.80;38.35
50057;BME280;36875;49.468;11.200;2023-04-20T11:48:09;97628.03;;;21.64;38.69
50057;BME280;36875;49.468;11.200;2023-04-20T11:50:34;97635.31;;;21.51;38.91
50057;BME280;36875;49.468;11.200;2023-04-20T11:53:00;97641.25;;;21.44;38.98
50057;BME280;36875;49.468;11.200;2023-04-20T11:55:28;97640.00;;;21.42;38.87
50057;BME280;36875;49.468;11.200;2023-04-20T11:57:53;97627.09;;;21.42;38.86
50057;BME280;36875;49.468;11.200;2023-04-20T12:00:19;97626.81;;;21.35;39.14
50057;BME280;36875;49.468;11.200;2023-04-20T12:02:46;97633.59;;;21.29;39.08
50057;BME280;36875;49.468;11.200;2023-04-20T12:05:11;97622.97;;;21.27;39.18
50057;BME280;36875;49.468;11.200;2023-04-20T12:07:37;97639.72;;;21.26;39.12
50057;BME280;36875;49.468;11.200;2023-04-20T12:10:03;97629.09;;;21.24;38.91
50057;BME280;36875;49.468;11.200;2023-04-20T12:12:30;97638.13;;;21.25;39.16
50057;BME280;36875;49.468;11.200;2023-04-20T12:14:56;97633.75;;;21.24;39.01
50057;BME280;36875;49.468;11.200;2023-04-20T12:17:22;97636.34;;;21.20;38.94
50057;BME280;36875;49.468;11.200;2023-04-20T12:19:47;97645.03;;;21.22;39.13
50057;BME280;36875;49.468;11.200;2023-04-20T12:22:12;97639.88;;;21.21;39.04
50057;BME280;36875;49.468;11.200;2023-04-20T12:24:38;97627.03;;;21.21;39.07
50057;BME280;36875;49.468;11.200;2023-04-20T12:27:03;97626.50;;;21.19;39.03
50057;BME280;36875;49.468;11.200;2023-04-20T12:29:31;97627.66;;;21.18;38.98
50057;BME280;36875;49.468;11.200;2023-04-20T12:31:57;97637.81;;;21.17;39.13
50057;BME280;36875;49.468;11.200;2023-04-20T12:34:22;97629.94;;;21.16;39.08
50057;BME280;36875;49.468;11.200;2023-04-20T12:36:48;97629.44;;;21.14;38.96
50057;BME280;36875;49.468;11.200;2023-04-20T12:39:14;97623.97;;;21.14;39.05
50057;BME280;36875;49.468;11.200;2023-04-20T12:41:40;97639.09;;;21.11;39.20
50057;BME280;36875;49.468;11.200;2023-04-20T12:44:05;97630.09;;;20.93;39.18
50057;BME280;36875;49.468;11.200;2023-04-20T12:46:32;97633.50;;;20.90;39.47
50057;BME280;36875;49.468;11.200;2023-04-20T12:48:58;97638.31;;;20.93;38.61